Time;durP1;ratioP1;P1;durP2;ratioP2;P2;SDS_P1;SDS_P2;PMS_P1;PMS_P2;Temp;Humidity;BMP_temperature;BMP_pressure;BME280_temperature;BME280_humidity;BME280_pressure;Samples;Min_cycle;Max_cycle;Signal;HPM_P1;HPM_P2
2022/11/22 00:01:41;;;;;;;70.65;34.73;;;;;;;0.98;76.95;99262.52;2086745;85;31393;-60
2022/11/22 00:04:42;;;;;;;67.00;32.60;;;;;;;0.96;76.98;99250.27;2086451;84;34125;-60
2022/11/22 00:07:43;;;;;;;63.58;32.88;;;;;;;0.96;77.02;99249.83;2086861;85;29675;-60
2022/11/22 00:10:49;;;;;;;62.58;33.40;;;;;;;0.95;77.11;99248.09;2086838;85;27662;-59
2022/11/22 00:13:51;;;;;;;56.18;28.92;;;;;;;0.96;77.09;99244.99;2086445;84;28615;-60
2022/11/22 00:16:52;;;;;;;57.95;29.87;;;;;;;0.94;77.18;99251.64;2086760;85;32155;-57
2022/11/22 00:19:53;;;;;;;54.00;28.85;;;;;;;0.91;77.14;99245.98;2086622;85;32810;-59
2022/11/22 00:22:57;;;;;;;62.95;33.65;;;;;;;0.94;77.30;99242.84;2086782;85;30544;-58
2022/11/22 00:25:58;;;;;;;53.70;27.80;;;;;;;0.94;77.31;99236.25;2086733;85;28268;-59
2022/11/22 00:29:00;;;;;;;49.45;27.27;;;;;;;0.94;77.34;99238.45;2086738;84;29158;-58
2022/11/22 00:32:01;;;;;;;53.13;29.65;;;;;;;0.96;77.44;99232.69;2086394;85;32245;-59
2022/11/22 00:35:04;;;;;;;50.98;28.70;;;;;;;0.99;77.49;99225.14;2086676;85;32976;-59
2022/11/22 00:38:05;;;;;;;51.30;29.40;;;;;;;0.98;77.36;99215.49;2086708;84;30449;-58
2022/11/22 00:41:11;;;;;;;49.13;29.50;;;;;;;0.95;77.49;99226.13;2086925;85;27687;-62
2022/11/22 00:44:12;;;;;;;50.40;26.57;;;;;;;0.93;77.44;99227.50;2086700;84;27921;-58
2022/11/22 00:47:14;;;;;;;58.73;30.37;;;;;;;0.92;77.55;99217.85;2086668;85;30955;-58
2022/11/22 00:50:16;;;;;;;44.30;24.82;;;;;;;0.94;77.69;99214.72;2095249;84;32760;-57
2022/11/22 00:53:17;;;;;;;49.60;26.37;;;;;;;0.92;77.73;99203.35;2096098;84;29389;-58
2022/11/22 00:56:19;;;;;;;46.02;25.70;;;;;;;0.88;77.74;99210.92;2096433;84;27976;-58
2022/11/22 00:59:20;;;;;;;46.37;24.15;;;;;;;0.86;77.82;99214.94;2096233;84;29127;-58
2022/11/22 01:02:22;;;;;;;43.20;23.95;;;;;;;0.85;77.90;99211.00;2101071;84;32307;-58
2022/11/22 01:05:24;;;;;;;39.92;22.90;;;;;;;0.82;77.90;99204.52;2101564;84;34085;-58
2022/11/22 01:08:25;;;;;;;45.70;24.85;;;;;;;0.80;78.14;99200.59;2107948;84;28684;-58
2022/11/22 01:11:28;;;;;;;37.90;21.27;;;;;;;0.78;78.03;99197.59;2108749;84;27673;-58
2022/11/22 01:14:30;;;;;;;43.42;24.00;;;;;;;0.72;78.12;99199.48;2075143;85;28679;-58
2022/11/22 01:17:31;;;;;;;44.50;25.10;;;;;;;0.72;78.23;99206.08;2074695;85;32243;-58
2022/11/22 01:20:32;;;;;;;42.55;24.43;;;;;;;0.75;78.29;99198.52;2089384;85;33352;-59
2022/11/22 01:23:34;;;;;;;37.55;22.42;;;;;;;0.77;78.42;99199.82;2082990;85;29764;-59
2022/11/22 01:26:36;;;;;;;41.30;22.40;;;;;;;0.71;78.34;99193.80;2082999;85;27793;-58
2022/11/22 01:29:37;;;;;;;37.13;22.15;;;;;;;0.69;78.43;99198.24;2082806;85;29117;-58
2022/11/22 01:32:40;;;;;;;36.40;20.90;;;;;;;0.69;78.59;99202.20;2050306;85;27918;-59
2022/11/22 01:35:42;;;;;;;37.15;22.05;;;;;;;0.67;78.71;99204.47;2082942;85;32748;-58
2022/11/22 01:38:43;;;;;;;35.45;20.92;;;;;;;0.65;78.69;99197.94;2082836;85;29474;-59
2022/11/22 01:41:44;;;;;;;42.38;23.90;;;;;;;0.65;78.72;99199.26;2082840;85;27665;-58
2022/11/22 01:44:47;;;;;;;35.85;20.45;;;;;;;0.64;78.72;99208.06;2083252;85;28722;-58
2022/11/22 01:47:48;;;;;;;42.33;23.95;;;;;;;0.60;78.76;99198.03;2082956;85;31420;-58
2022/11/22 01:50:55;;;;;;;38.73;21.87;;;;;;;0.61;78.81;99208.14;2086527;85;32645;-59
2022/11/22 01:54:01;;;;;;;38.98;22.70;;;;;;;0.61;78.84;99194.97;2088758;85;29368;-59
2022/11/22 01:57:07;;;;;;;37.42;21.60;;;;;;;0.59;78.85;99186.23;2093126;85;27678;-58
2022/11/22 02:00:15;;;;;;;39.73;23.62;;;;;;;0.57;78.89;99191.56;2093088;85;29841;-58
2022/11/22 02:03:17;;;;;;;42.98;24.72;;;;;;;0.48;78.85;99179.92;2072859;85;31982;-58
2022/11/22 02:06:21;;;;;;;51.02;28.83;;;;;;;0.43;78.99;99188.39;2073060;85;28795;-58
2022/11/22 02:09:23;;;;;;;45.48;26.25;;;;;;;0.38;78.98;99179.77;2073791;85;29726;-58
2022/11/22 02:12:27;;;;;;;47.27;25.90;;;;;;;0.36;79.03;99176.30;2073892;85;27686;-58
2022/11/22 02:15:29;;;;;;;52.88;28.85;;;;;;;0.32;79.09;99183.43;2073952;85;28656;-59
2022/11/22 02:18:35;;;;;;;51.05;26.95;;;;;;;0.33;79.19;99182.97;2073756;85;30897;-58
2022/11/22 02:21:36;;;;;;;57.10;31.52;;;;;;;0.32;79.23;99175.53;2076693;84;33030;-59
2022/11/22 02:24:43;;;;;;;52.20;29.18;;;;;;;0.28;79.14;99172.09;2108209;83;29694;-58
2022/11/22 02:27:45;;;;;;;56.48;29.02;;;;;;;0.28;79.26;99178.67;2110844;83;27649;-59
2022/11/22 02:30:46;;;;;;;57.70;28.17;;;;;;;0.28;79.26;99170.77;2110356;83;29125;-59
2022/11/22 02:33:47;;;;;;;65.32;28.40;;;;;;;0.24;79.31;99177.48;2110662;83;31392;-59
2022/11/22 02:36:52;;;;;;;50.52;26.82;;;;;;;0.19;79.32;99177.61;2110391;84;33004;-58
2022/11/22 02:40:01;;;;;;;55.65;29.50;;;;;;;0.13;79.42;99169.41;2110628;83;30167;-59
2022/11/22 02:43:09;;;;;;;52.93;26.87;;;;;;;0.12;79.54;99157.15;2110668;83;27717;-59
2022/11/22 02:46:15;;;;;;;50.25;25.65;;;;;;;0.07;79.74;99145.86;2110527;84;29449;-59
2022/11/22 02:49:20;;;;;;;50.67;24.43;;;;;;;0.02;79.70;99144.25;2104705;83;31014;-59
2022/11/22 02:52:21;;;;;;;46.18;23.77;;;;;;;-0.02;79.83;99135.57;2091475;83;33011;-59
2022/11/22 02:55:22;;;;;;;44.38;23.00;;;;;;;-0.07;80.00;99138.30;2062972;85;29714;-59
2022/11/22 02:58:23;;;;;;;46.63;23.55;;;;;;;-0.08;80.35;99140.52;2043244;85;28000;-59
2022/11/22 03:01:25;;;;;;;52.08;23.27;;;;;;;-0.10;80.22;99136.20;2067684;86;29972;-59
2022/11/22 03:04:26;;;;;;;50.55;23.67;;;;;;;-0.10;80.47;99127.87;2067419;86;31415;-59
2022/11/22 03:07:28;;;;;;;52.78;24.37;;;;;;;-0.13;80.63;99126.63;2067514;85;33322;-58
2022/11/22 03:10:29;;;;;;;52.62;24.25;;;;;;;-0.12;80.87;99117.83;2067066;85;30613;-59
2022/11/22 03:13:30;;;;;;;52.88;24.95;;;;;;;-0.12;80.80;99109.05;2067493;86;27687;-59
2022/11/22 03:16:32;;;;;;;49.93;23.35;;;;;;;-0.13;80.87;99120.48;2067158;86;29823;-59
2022/11/22 03:19:33;;;;;;;47.50;25.02;;;;;;;-0.11;81.07;99130.08;2071472;85;31360;-59
2022/11/22 03:22:35;;;;;;;50.80;23.18;;;;;;;-0.10;80.94;99137.08;2067112;85;32998;-59
2022/11/22 03:25:38;;;;;;;51.13;24.55;;;;;;;-0.07;81.17;99136.98;2067030;86;30520;-59
2022/11/22 03:28:40;;;;;;;44.08;23.35;;;;;;;-0.06;81.17;99136.08;2067390;86;27722;-59
2022/11/22 03:31:41;;;;;;;52.75;24.60;;;;;;;-0.04;81.43;99138.22;2067016;86;29950;-58
2022/11/22 03:34:43;;;;;;;51.73;26.15;;;;;;;-0.03;81.39;99129.42;2068704;85;32221;-58
2022/11/22 03:37:44;;;;;;;53.17;26.25;;;;;;;-0.01;81.35;99124.14;2086771;85;33381;-57
2022/11/22 03:40:46;;;;;;;53.92;25.57;;;;;;;0.02;81.42;99140.30;2086664;85;30491;-57
2022/11/22 03:43:47;;;;;;;56.53;29.27;;;;;;;0.03;81.59;99134.98;2086833;85;27688;-58
2022/11/22 03:46:48;;;;;;;48.78;24.72;;;;;;;0.06;81.59;99131.42;2086379;84;29951;-58
2022/11/22 03:49:50;;;;;;;55.43;26.70;;;;;;;0.07;81.84;99130.52;2097749;84;30758;-59
2022/11/22 03:52:51;;;;;;;57.08;25.65;;;;;;;0.08;81.69;99133.10;2110491;84;33010;-59
2022/11/22 03:55:52;;;;;;;55.63;27.37;;;;;;;0.08;81.77;99132.26;2110859;84;29689;-58
2022/11/22 03:58:53;;;;;;;59.88;28.47;;;;;;;0.07;81.84;99135.79;2108307;84;27676;-59
2022/11/22 04:01:55;;;;;;;57.38;28.23;;;;;;;0.06;81.72;99133.59;2107849;84;28693;-59
2022/11/22 04:04:56;;;;;;;64.00;31.75;;;;;;;0.06;81.84;99123.06;2108389;84;31021;-59
2022/11/22 04:07:58;;;;;;;60.63;29.90;;;;;;;0.05;81.88;99122.64;2107903;84;34172;-59
2022/11/22 04:10:59;;;;;;;59.05;31.12;;;;;;;0.04;81.91;99113.02;2108149;84;29338;-59
2022/11/22 04:17:40;;;;;;;57.55;29.55;;;;;;;0.03;81.98;99126.23;2108067;84;29131;-59
2022/11/22 04:27:25;;;;;;;55.55;28.55;;;;;;;0.10;82.40;99122.09;2108651;84;29515;-60
2022/11/22 04:33:47;;;;;;;53.83;26.12;;;;;;;0.10;82.36;99116.81;2107926;84;30087;-60
2022/11/22 04:36:48;;;;;;;59.08;28.60;;;;;;;0.12;82.46;99104.91;2108250;84;31393;-60
2022/11/22 04:39:49;;;;;;;69.32;31.37;;;;;;;0.16;82.55;99103.09;2108277;84;33709;-61
2022/11/22 04:46:06;;;;;;;64.70;28.83;;;;;;;0.22;82.38;99098.95;2092970;84;28377;-59
2022/11/22 04:49:08;;;;;;;68.05;31.20;;;;;;;0.25;82.59;99094.45;2077801;85;29629;-62
2022/11/22 04:55:28;;;;;;;67.05;31.70;;;;;;;0.28;82.58;99094.85;2053384;86;33231;-60
2022/11/22 04:58:30;;;;;;;60.43;30.20;;;;;;;0.34;82.59;99100.40;2032524;87;29763;-59
2022/11/22 05:01:31;;;;;;;55.70;28.07;;;;;;;0.36;82.56;99098.12;2053890;86;27758;-59
2022/11/22 05:04:33;;;;;;;62.45;30.72;;;;;;;0.37;82.72;99093.73;2053946;86;29638;-61
2022/11/22 05:07:34;;;;;;;66.55;31.00;;;;;;;0.38;82.63;99096.78;2053594;86;31508;-60
2022/11/22 05:13:56;;;;;;;63.10;30.00;;;;;;;0.40;82.75;99100.24;2053493;86;29979;-61
2022/11/22 05:16:57;;;;;;;68.87;31.07;;;;;;;0.42;82.78;99092.70;2053719;86;27780;-60
2022/11/22 05:19:58;;;;;;;59.00;28.80;;;;;;;0.44;82.79;99098.79;2061279;86;29181;-60
2022/11/22 05:26:18;;;;;;;65.28;27.50;;;;;;;0.43;83.16;99097.50;2043913;85;34200;-59
2022/11/22 05:29:19;;;;;;;77.17;27.42;;;;;;;0.43;83.39;99090.91;2034719;87;29243;-60
2022/11/22 05:32:20;;;;;;;57.23;29.35;;;;;;;0.38;83.35;99096.78;2089692;85;27581;-62
2022/11/22 05:35:22;;;;;;;56.00;28.10;;;;;;;0.37;83.24;99104.27;2090017;85;29077;-63
2022/11/22 05:38:23;;;;;;;69.53;29.63;;;;;;;0.39;83.35;99115.17;2090005;85;32386;-61
2022/11/22 05:41:25;;;;;;;57.48;26.05;;;;;;;0.41;83.44;99118.63;2089790;85;33804;-60
2022/11/22 05:44:26;;;;;;;56.63;25.80;;;;;;;0.43;83.42;99118.14;2089702;85;29496;-60
2022/11/22 05:47:27;;;;;;;54.88;27.07;;;;;;;0.45;83.57;99116.33;2089420;83;28400;-60
2022/11/22 05:50:28;;;;;;;52.48;23.00;;;;;;;0.48;83.45;99114.05;2067896;85;28613;-59
2022/11/22 05:53:29;;;;;;;55.92;25.92;;;;;;;0.47;83.62;99112.33;2067502;86;32206;-58
2022/11/22 05:56:30;;;;;;;54.58;26.35;;;;;;;0.47;83.46;99115.42;2067539;86;33138;-58
2022/11/22 05:59:34;;;;;;;57.15;25.88;;;;;;;0.47;83.53;99118.91;2072033;85;29700;-59
2022/11/22 06:02:35;;;;;;;60.60;28.62;;;;;;;0.50;83.60;99125.42;2089283;85;28327;-63
2022/11/22 06:05:36;;;;;;;57.95;28.67;;;;;;;0.53;83.64;99133.25;2089123;85;29074;-58
2022/11/22 06:08:42;;;;;;;47.35;24.00;;;;;;;0.55;83.60;99127.92;2089100;85;31826;-58
2022/11/22 06:11:43;;;;;;;49.88;26.82;;;;;;;0.57;83.75;99128.75;2088870;84;32967;-59
2022/11/22 06:14:45;;;;;;;58.80;26.55;;;;;;;0.57;83.62;99129.63;2088688;85;29380;-59
2022/11/22 06:17:46;;;;;;;54.20;26.82;;;;;;;0.58;83.71;99132.64;2090341;84;27726;-59
2022/11/22 06:20:47;;;;;;;52.45;26.82;;;;;;;0.59;83.74;99141.44;2099084;84;29839;-58
2022/11/22 06:23:51;;;;;;;60.90;25.97;;;;;;;0.62;83.75;99143.98;2099026;84;31429;-59
2022/11/22 06:26:52;;;;;;;57.98;25.40;;;;;;;0.63;83.86;99135.17;2074939;84;32574;-59
2022/11/22 06:29:53;;;;;;;58.15;27.48;;;;;;;0.63;83.83;99135.61;2075824;85;29700;-59
2022/11/22 06:32:56;;;;;;;60.60;27.22;;;;;;;0.65;83.80;99131.17;2111012;84;27706;-59
2022/11/22 06:36:07;;;;;;;50.15;26.48;;;;;;;0.69;83.84;99134.98;2110221;84;30232;-58
2022/11/22 06:39:09;;;;;;;61.45;28.65;;;;;;;0.69;83.95;99128.86;2110927;84;31373;-58
2022/11/22 06:42:10;;;;;;;52.55;26.27;;;;;;;0.73;83.92;99123.92;2110676;84;33110;-58
2022/11/22 06:45:14;;;;;;;63.38;27.00;;;;;;;0.74;84.02;99128.29;2111046;84;29691;-58
2022/11/22 06:48:16;;;;;;;53.60;24.30;;;;;;;0.73;83.89;99134.47;2109455;84;27661;-58
2022/11/22 06:51:21;;;;;;;49.63;23.57;;;;;;;0.74;83.96;99148.06;2103122;84;29046;-59
2022/11/22 06:54:22;;;;;;;54.33;25.23;;;;;;;0.77;84.08;99154.54;2103323;84;31059;-60
2022/11/22 06:57:24;;;;;;;55.85;24.87;;;;;;;0.75;84.06;99162.50;2105977;84;34071;-61
2022/11/22 07:00:25;;;;;;;55.52;25.35;;;;;;;0.77;84.25;99165.08;2110405;84;29952;-60
2022/11/22 07:03:27;;;;;;;63.33;27.02;;;;;;;0.78;84.21;99158.91;2110357;84;27702;-63
2022/11/22 07:06:32;;;;;;;55.75;26.57;;;;;;;0.81;84.29;99164.09;2110290;84;29030;-60
2022/11/22 07:09:34;;;;;;;59.30;26.60;;;;;;;0.85;84.34;99161.80;2108697;84;32017;-59
2022/11/22 07:12:35;;;;;;;59.15;27.87;;;;;;;0.89;84.30;99170.03;2110230;84;33620;-62
2022/11/22 07:15:37;;;;;;;60.33;27.30;;;;;;;0.95;84.35;99181.30;2109836;84;30659;-59
2022/11/22 07:18:39;;;;;;;55.25;26.42;;;;;;;0.99;84.32;99183.83;2110444;84;27663;-59
2022/11/22 07:21:40;;;;;;;59.55;25.60;;;;;;;1.03;84.36;99174.89;2110348;84;29856;-59
2022/11/22 07:24:42;;;;;;;61.02;27.15;;;;;;;1.06;84.35;99177.45;2110651;84;31397;-59
2022/11/22 07:27:43;;;;;;;58.15;26.60;;;;;;;1.10;84.33;99160.22;2109913;84;33552;-60
2022/11/22 07:30:44;;;;;;;55.23;24.47;;;;;;;1.14;84.39;99167.14;2109947;84;30513;-60
2022/11/22 07:33:46;;;;;;;54.77;25.90;;;;;;;1.19;84.44;99161.25;2110311;84;28336;-59
2022/11/22 07:36:47;;;;;;;58.20;26.05;;;;;;;1.22;84.46;99153.25;2110245;84;29097;-59
2022/11/22 07:39:48;;;;;;;60.03;27.00;;;;;;;1.24;84.38;99134.77;2109883;84;31125;-60
2022/11/22 07:42:49;;;;;;;60.85;27.45;;;;;;;1.27;84.45;99135.52;2110262;84;33763;-58
2022/11/22 07:45:51;;;;;;;59.90;29.40;;;;;;;1.33;84.51;99138.42;2110216;84;29670;-60
2022/11/22 07:48:52;;;;;;;75.97;28.52;;;;;;;1.34;84.42;99137.52;2106486;84;27563;-59
2022/11/22 07:51:53;;;;;;;57.27;27.22;;;;;;;1.36;84.42;99142.30;2090661;84;29167;-60
2022/11/22 07:54:55;;;;;;;66.87;28.15;;;;;;;1.39;84.42;99150.56;2086830;84;31483;-60
2022/11/22 07:57:59;;;;;;;65.00;30.27;;;;;;;1.42;84.57;99145.20;2086426;85;32651;-63
2022/11/22 08:01:10;;;;;;;57.93;26.37;;;;;;;1.48;84.59;99141.06;2086669;84;30490;-60
2022/11/22 08:04:11;;;;;;;70.10;27.22;;;;;;;1.53;84.53;99135.62;2086742;85;27778;-59
2022/11/22 08:07:13;;;;;;;58.98;26.68;;;;;;;1.54;84.45;99130.28;2086654;85;29136;-60
2022/11/22 08:10:15;;;;;;;56.05;23.60;;;;;;;1.58;84.49;99131.92;2086713;85;31447;-60
2022/11/22 08:13:16;;;;;;;66.70;27.80;;;;;;;1.61;84.60;99122.59;2086625;85;33014;-60
2022/11/22 08:16:18;;;;;;;61.35;28.57;;;;;;;1.58;84.38;99117.41;2086618;85;30443;-57
2022/11/22 08:19:21;;;;;;;60.80;27.32;;;;;;;1.61;84.45;99116.00;2086526;84;27910;-57
2022/11/22 08:22:22;;;;;;;47.05;23.85;;;;;;;1.62;84.39;99103.20;2086668;84;29592;-57
2022/11/22 08:25:24;;;;;;;56.83;24.50;;;;;;;1.62;84.40;99107.16;2086669;85;32185;-57
2022/11/22 08:28:26;;;;;;;56.33;26.00;;;;;;;1.65;84.40;99115.43;2086717;85;33558;-63
2022/11/22 08:31:27;;;;;;;62.35;29.70;;;;;;;1.69;84.36;99112.23;2122054;83;29326;-62
2022/11/22 08:34:28;;;;;;;55.10;28.52;;;;;;;1.71;84.34;99113.05;2088859;84;28204;-63
2022/11/22 08:37:30;;;;;;;61.90;27.60;;;;;;;1.75;84.25;99121.28;2089172;85;29842;-62
2022/11/22 08:40:31;;;;;;;51.33;25.55;;;;;;;1.81;84.30;99126.38;2095807;84;31461;-62
2022/11/22 08:43:33;;;;;;;53.33;28.92;;;;;;;1.85;84.18;99121.84;2075357;85;33336;-60
2022/11/22 08:46:34;;;;;;;53.15;28.20;;;;;;;1.90;84.21;99124.73;2096175;84;29516;-61
2022/11/22 08:49:36;;;;;;;56.68;28.83;;;;;;;1.91;83.94;99130.42;2072996;85;27595;-63
2022/11/22 08:52:38;;;;;;;56.92;27.50;;;;;;;1.96;84.01;99130.27;2096677;84;28821;-62
2022/11/22 08:55:40;;;;;;;56.40;28.25;;;;;;;1.99;83.83;99130.17;2103495;84;31909;-62
2022/11/22 08:58:42;;;;;;;53.45;27.70;;;;;;;2.04;83.94;99133.97;2062067;86;33390;-64
2022/11/22 09:01:43;;;;;;;58.83;28.77;;;;;;;2.04;83.65;99141.45;2062530;85;29693;-62
2022/11/22 09:04:44;;;;;;;56.35;28.95;;;;;;;2.08;83.77;99136.92;2062450;86;27755;-63
2022/11/22 09:07:46;;;;;;;52.43;27.25;;;;;;;2.10;83.70;99134.63;2062409;86;29040;-64
2022/11/22 09:10:49;;;;;;;50.08;25.37;;;;;;;2.16;83.66;99136.66;2062499;86;32203;-62
2022/11/22 09:13:51;;;;;;;50.88;28.50;;;;;;;2.18;83.66;99133.04;2062426;86;33669;-70
2022/11/22 09:16:52;;;;;;;57.20;28.75;;;;;;;2.25;83.65;99132.37;2062526;86;29709;-67
2022/11/22 09:19:53;;;;;;;53.75;28.02;;;;;;;2.28;83.50;99135.80;2062483;86;27703;-62
2022/11/22 09:22:54;;;;;;;53.78;29.18;;;;;;;2.32;83.47;99141.83;2062497;86;29532;-61
2022/11/22 09:26:05;;;;;;;54.90;28.85;;;;;;;2.38;83.48;99151.31;2062364;86;31430;-63
2022/11/22 09:29:06;;;;;;;54.63;28.70;;;;;;;2.44;83.41;99153.76;2063298;85;35060;-62
2022/11/22 09:32:11;;;;;;;47.15;25.57;;;;;;;2.48;83.28;99146.58;2062859;85;30448;-62
2022/11/22 09:35:15;;;;;;;52.25;25.90;;;;;;;2.52;83.19;99140.27;2039670;85;33250;-61
2022/11/22 09:38:15;;;;;;;49.65;26.17;;;;;;;2.52;82.99;99142.44;2028935;87;29522;-66
2022/11/22 09:41:31;;;;;;;45.23;25.10;;;;;;;2.52;82.87;99133.66;2029657;86;31032;-68
2022/11/22 09:45:10;;;;;;;50.35;27.58;;;;;;;2.56;82.88;99130.84;2029167;87;33318;-65
2022/11/22 09:48:28;;;;;;;48.30;27.55;;;;;;;2.55;82.66;99129.59;2029303;86;30150;-61
2022/11/22 09:51:40;;;;;;;52.60;27.58;;;;;;;2.56;82.81;99126.03;2032243;85;27744;-64
2022/11/22 09:54:46;;;;;;;54.98;29.20;;;;;;;2.61;82.77;99127.19;2061587;85;29927;-63
2022/11/22 09:57:51;;;;;;;56.63;28.12;;;;;;;2.67;82.94;99116.36;2060120;85;32538;-64
2022/11/22 10:00:57;;;;;;;44.90;26.35;;;;;;;2.76;82.78;99118.69;2096332;84;33107;-62
2022/11/22 10:04:16;;;;;;;48.85;28.27;;;;;;;2.82;82.63;99126.38;2096926;84;30038;-67
2022/11/22 10:07:38;;;;;;;46.00;25.12;;;;;;;2.89;82.68;99124.40;2080332;84;27770;-62
2022/11/22 10:10:43;;;;;;;43.58;24.65;;;;;;;2.95;82.35;99124.15;2104056;84;29153;-64
2022/11/22 10:13:52;;;;;;;44.65;25.82;;;;;;;2.98;82.18;99110.81;2107535;84;32012;-61
2022/11/22 10:17:07;;;;;;;48.95;24.95;;;;;;;3.06;82.10;99114.48;2108380;84;33045;-65
2022/11/22 10:20:21;;;;;;;46.75;26.82;;;;;;;3.08;81.79;99111.33;2108526;84;29745;-63
2022/11/22 10:23:25;;;;;;;43.68;25.75;;;;;;;3.15;82.15;99108.83;2104764;84;27692;-61
2022/11/22 10:26:36;;;;;;;50.40;27.20;;;;;;;3.25;81.75;99108.50;2101168;84;28727;-62
2022/11/22 10:29:58;;;;;;;46.63;26.15;;;;;;;3.27;81.62;99107.50;2101700;84;31145;-62
2022/11/22 10:33:20;;;;;;;48.78;27.35;;;;;;;3.28;81.27;99118.97;2100366;84;32983;-63
2022/11/22 10:37:02;;;;;;;44.80;25.23;;;;;;;3.28;81.37;99113.67;2064326;86;29373;-67
2022/11/22 10:40:26;;;;;;;39.20;23.32;;;;;;;3.30;81.37;99111.36;2079393;85;27679;-68
2022/11/22 10:43:39;;;;;;;38.90;24.63;;;;;;;3.40;81.13;99105.69;2078775;85;29534;-64
2022/11/22 10:46:46;;;;;;;48.30;29.57;;;;;;;3.43;80.97;99112.19;2079141;85;31529;-64
2022/11/22 10:50:22;;;;;;;54.83;26.48;;;;;;;3.50;81.01;99112.36;2078837;85;34329;-65
2022/11/22 10:53:32;;;;;;;49.15;28.70;;;;;;;3.50;80.80;99104.42;2075134;85;30466;-61
2022/11/22 10:56:54;;;;;;;50.10;28.50;;;;;;;3.49;80.78;99102.22;2074718;85;27739;-62
2022/11/22 11:00:23;;;;;;;43.58;26.97;;;;;;;3.54;80.65;99110.00;2043413;86;28517;-63
2022/11/22 11:03:31;;;;;;;41.85;26.20;;;;;;;3.48;80.20;99105.78;2093560;85;31018;-63
2022/11/22 11:06:47;;;;;;;45.40;27.40;;;;;;;3.55;80.76;99097.16;2093349;85;33640;-64
2022/11/22 11:09:53;;;;;;;42.03;24.87;;;;;;;3.62;80.65;99097.77;2093401;85;30878;-60
2022/11/22 11:12:59;;;;;;;47.05;26.10;;;;;;;3.65;80.25;99098.95;2093752;85;27811;-62
2022/11/22 11:16:05;;;;;;;46.00;27.93;;;;;;;3.70;80.34;99110.22;2093650;85;28668;-63
2022/11/22 11:19:19;;;;;;;53.28;30.00;;;;;;;3.77;80.41;99102.89;2093664;85;31012;-62
2022/11/22 11:22:23;;;;;;;42.85;24.40;;;;;;;3.86;80.52;99111.80;2093748;85;33748;-63
2022/11/22 11:25:39;;;;;;;45.67;26.48;;;;;;;3.93;79.99;99106.63;2093255;85;29363;-62
2022/11/22 11:28:40;;;;;;;44.70;25.80;;;;;;;3.98;80.02;99102.45;2093352;85;27766;-66
2022/11/22 11:31:53;;;;;;;43.70;27.13;;;;;;;4.01;79.67;99097.51;2093697;85;28641;-63
2022/11/22 11:34:59;;;;;;;44.15;25.32;;;;;;;4.10;79.88;99095.78;2106248;82;31100;-61
2022/11/22 11:38:00;;;;;;;51.83;28.38;;;;;;;4.17;79.65;99097.25;2161540;82;33314;-62
2022/11/22 11:41:32;;;;;;;45.00;25.95;;;;;;;4.26;79.74;99090.70;2110541;84;29359;-61
2022/11/22 11:44:36;;;;;;;45.78;26.42;;;;;;;4.35;79.54;99090.76;2110817;84;27671;-62
2022/11/22 11:47:38;;;;;;;44.53;27.75;;;;;;;4.41;79.34;99095.33;2110382;83;29436;-61
2022/11/22 11:50:39;;;;;;;44.83;27.35;;;;;;;4.47;78.96;99092.86;2110853;84;32171;-65
2022/11/22 11:53:44;;;;;;;46.30;28.57;;;;;;;4.49;78.63;99100.30;2074044;84;33742;-61
2022/11/22 11:57:03;;;;;;;56.37;33.45;;;;;;;4.54;79.11;99092.13;2109279;84;29361;-60
2022/11/22 12:00:10;;;;;;;66.55;36.20;;;;;;;4.59;78.98;99090.14;2110105;84;27640;-60
2022/11/22 12:03:16;;;;;;;53.50;31.07;;;;;;;4.59;77.75;99080.86;2110224;84;28646;-63
2022/11/22 12:06:17;;;;;;;63.55;36.48;;;;;;;4.54;78.33;99074.44;2110878;84;31007;-62
2022/11/22 12:09:36;;;;;;;54.45;33.70;;;;;;;4.54;78.49;99077.54;2075151;85;33890;-64
2022/11/22 12:12:50;;;;;;;61.20;34.85;;;;;;;4.55;78.30;99069.98;2110400;84;31433;-61
2022/11/22 12:16:15;;;;;;;57.53;34.40;;;;;;;4.56;78.64;99073.03;2107838;84;27716;-61
2022/11/22 12:19:47;;;;;;;58.58;33.05;;;;;;;4.64;78.78;99074.02;2103620;84;29060;-59
2022/11/22 12:23:27;;;;;;;58.68;31.35;;;;;;;4.67;78.57;99072.08;2102518;84;33245;-62
2022/11/22 12:26:30;;;;;;;42.33;25.97;;;;;;;4.73;78.34;99062.13;2102383;84;32962;-60
2022/11/22 12:29:33;;;;;;;69.37;38.42;;;;;;;4.70;77.60;99051.20;2104883;84;29401;-62
2022/11/22 12:32:43;;;;;;;124.35;64.87;;;;;;;4.69;77.58;99053.45;2110240;83;27714;-61
2022/11/22 12:35:45;;;;;;;111.85;60.95;;;;;;;4.68;77.82;99053.91;2110550;83;29102;-62
2022/11/22 12:38:48;;;;;;;57.88;32.73;;;;;;;4.66;77.72;99052.27;2110079;84;32477;-62
2022/11/22 12:41:54;;;;;;;58.50;33.25;;;;;;;4.68;77.76;99054.38;2110361;84;34131;-61
2022/11/22 12:45:06;;;;;;;61.77;36.75;;;;;;;4.71;77.91;99060.40;2110465;84;29331;-60
2022/11/22 12:48:25;;;;;;;58.05;33.53;;;;;;;4.76;77.73;99054.03;2110514;84;27989;-61
2022/11/22 12:51:43;;;;;;;70.70;43.80;;;;;;;4.79;77.83;99057.39;2073908;85;29094;-62
2022/11/22 12:55:10;;;;;;;57.90;35.48;;;;;;;4.82;77.57;99058.59;2074041;85;32274;-62
2022/11/22 12:58:38;;;;;;;56.20;33.60;;;;;;;4.81;77.52;99058.64;2074477;85;33372;-61
2022/11/22 13:01:45;;;;;;;56.77;33.20;;;;;;;4.75;77.31;99058.94;2067103;85;29481;-64
2022/11/22 13:05:14;;;;;;;49.98;30.52;;;;;;;4.71;77.15;99048.46;2067132;86;27726;-62
2022/11/22 13:08:21;;;;;;;46.73;28.60;;;;;;;4.60;77.07;99060.48;2067875;86;28658;-59
2022/11/22 13:11:39;;;;;;;52.53;30.60;;;;;;;4.52;77.12;99056.85;2067402;86;31857;-59
2022/11/22 13:14:52;;;;;;;48.23;29.52;;;;;;;4.46;77.51;99049.19;2067312;85;34171;-61
2022/11/22 13:17:54;;;;;;;48.02;30.02;;;;;;;4.45;77.52;99047.47;2073332;85;29501;-61
2022/11/22 13:21:18;;;;;;;55.45;33.40;;;;;;;4.44;77.44;99048.39;2074379;85;27669;-64
2022/11/22 13:24:57;;;;;;;56.85;30.62;;;;;;;4.42;77.51;99047.12;2074232;85;29965;-62
2022/11/22 13:28:06;;;;;;;49.83;30.08;;;;;;;4.38;77.45;99044.23;2092429;84;33132;-62
2022/11/22 13:31:16;;;;;;;54.75;28.67;;;;;;;4.32;77.40;99040.03;2109425;84;33021;-61
2022/11/22 13:34:25;;;;;;;53.80;32.75;;;;;;;4.27;77.31;99034.10;2109498;84;29705;-61
2022/11/22 13:37:34;;;;;;;52.95;33.85;;;;;;;4.21;77.55;99035.23;2109928;83;27717;-61
2022/11/22 13:40:43;;;;;;;51.53;30.85;;;;;;;4.19;77.55;99042.84;2084197;84;28670;-62
2022/11/22 13:44:16;;;;;;;54.67;32.88;;;;;;;4.20;77.80;99040.59;2109806;83;31270;-61
2022/11/22 13:47:41;;;;;;;65.15;36.68;;;;;;;4.24;77.88;99046.16;2074166;85;34116;-69
2022/11/22 13:50:53;;;;;;;65.17;36.88;;;;;;;4.23;77.96;99037.80;2073756;85;30170;-60
2022/11/22 13:54:34;;;;;;;60.73;34.30;;;;;;;4.25;77.89;99038.60;2073999;85;27769;-62
2022/11/22 13:57:40;;;;;;;63.52;35.68;;;;;;;4.23;77.98;99035.16;2073951;85;29552;-62
2022/11/22 14:00:42;;;;;;;57.23;33.73;;;;;;;4.20;77.88;99037.48;2061642;85;31099;-63
2022/11/22 14:03:44;;;;;;;70.83;38.35;;;;;;;4.17;77.89;99032.31;2053439;86;33810;-62
2022/11/22 14:07:03;;;;;;;62.58;34.25;;;;;;;4.14;77.91;99040.39;2053446;86;30696;-62
2022/11/22 14:10:28;;;;;;;81.45;44.38;;;;;;;4.12;78.00;99032.97;2053184;86;27651;-62
2022/11/22 14:14:04;;;;;;;77.20;44.58;;;;;;;4.10;78.10;99030.40;2053600;86;29537;-63
2022/11/22 14:17:29;;;;;;;75.35;39.40;;;;;;;4.03;78.11;99018.81;2053794;86;31041;-62
2022/11/22 14:20:39;;;;;;;66.72;38.13;;;;;;;4.02;78.00;99025.03;2053539;86;33151;-63
2022/11/22 14:24:26;;;;;;;58.33;35.78;;;;;;;3.98;78.15;99026.94;2059146;86;29442;-65
2022/11/22 14:27:51;;;;;;;64.37;37.05;;;;;;;3.93;78.19;99027.62;2032792;87;27814;-62
2022/11/22 14:30:54;;;;;;;63.30;35.23;;;;;;;3.91;78.30;99034.29;2097600;84;29387;-65
2022/11/22 14:34:26;;;;;;;68.52;37.38;;;;;;;3.92;78.48;99026.73;2110494;83;31033;-62
2022/11/22 14:37:34;;;;;;;55.75;32.90;;;;;;;3.94;78.48;99029.34;2109706;83;33071;-63
2022/11/22 14:40:40;;;;;;;62.50;35.50;;;;;;;3.96;78.51;99026.16;2110139;83;30171;-62
2022/11/22 14:43:42;;;;;;;65.62;34.88;;;;;;;3.98;78.55;99038.86;2079196;84;27684;-62
2022/11/22 14:47:05;;;;;;;64.15;36.53;;;;;;;4.00;78.59;99026.89;2110319;84;28769;-62
2022/11/22 14:50:38;;;;;;;65.42;39.08;;;;;;;3.99;78.54;99034.44;2110180;84;30547;-62
2022/11/22 14:53:53;;;;;;;64.50;35.28;;;;;;;3.98;78.57;99030.91;2101615;82;34244;-61